sensor_id;sensor_type;location;lat;lon;timestamp;pressure;altitude;pressure_sealevel;temperature;humidity
84752;BME280;74978;37.772;-122.432;2024-03-02T00:01:17;100483.11;;;6.48;73.98
84752;BME280;74978;37.772;-122.432;2024-03-02T00:03:43;100467.20;;;6.81;73.29
84752;BME280;74978;37.772;-122.432;2024-03-02T00:06:07;100479.27;;;5.39;74.95
84752;BME280;74978;37.772;-122.432;2024-03-02T00:08:32;100468.12;;;6.55;74.12
84752;BME280;74978;37.772;-122.432;2024-03-02T00:11:00;100468.80;;;6.77;73.28
84752;BME280;74978;37.772;-122.432;2024-03-02T00:13:23;100479.84;;;6.48;74.14
84752;BME280;74978;37.772;-122.432;2024-03-02T00:15:52;100475.22;;;6.76;74.52
84752;BME280;74978;37.772;-122.432;2024-03-02T00:18:18;100465.83;;;6.69;74.07
84752;BME280;74978;37.772;-122.432;2024-03-02T00:20:40;100462.92;;;6.57;74.10
84752;BME280;74978;37.772;-122.432;2024-03-02T00:23:07;100475.15;;;5.07;76.90
84752;BME280;74978;37.772;-122.432;2024-03-02T00:25:44;100496.01;;;5.85;77.50
84752;BME280;74978;37.772;-122.432;2024-03-02T00:27:58;100495.97;;;5.35;79.90
84752;BME280;74978;37.772;-122.432;2024-03-02T00:32:47;100468.91;;;5.16;80.18
84752;BME280;74978;37.772;-122.432;2024-03-02T00:35:13;100465.80;;;5.14;78.68
84752;BME280;74978;37.772;-122.432;2024-03-02T00:37:46;100481.44;;;4.76;79.73
84752;BME280;74978;37.772;-122.432;2024-03-02T00:40:18;100475.53;;;4.09;79.87
84752;BME280;74978;37.772;-122.432;2024-03-02T00:42:29;100471.50;;;4.85;78.45
84752;BME280;74978;37.772;-122.432;2024-03-02T00:44:55;100467.54;;;5.17;79.28
84752;BME280;74978;37.772;-122.432;2024-03-02T00:47:20;100452.73;;;5.59;79.85
84752;BME280;74978;37.772;-122.432;2024-03-02T00:49:47;100459.39;;;5.37;79.31
84752;BME280;74978;37.772;-122.432;2024-03-02T00:52:12;100460.65;;;5.52;78.90
84752;BME280;74978;37.772;-122.432;2024-03-02T00:54:37;100469.09;;;5.92;79.46
84752;BME280;74978;37.772;-122.432;2024-03-02T00:57:03;100461.90;;;5.60;79.87
84752;BME280;74978;37.772;-122.432;2024-03-02T00:59:28;100450.47;;;6.32;79.29
84752;BME280;74978;37.772;-122.432;2024-03-02T01:01:53;100445.24;;;6.49;78.93
84752;BME280;74978;37.772;-122.432;2024-03-02T01:05:10;100457.90;;;5.78;80.50
84752;BME280;74978;37.772;-122.432;2024-03-02T01:06:52;100473.64;;;5.64;79.19
84752;BME280;74978;37.772;-122.432;2024-03-02T01:09:10;100463.08;;;4.11;79.48
84752;BME280;74978;37.772;-122.432;2024-03-02T01:11:37;100437.19;;;5.24;79.47
84752;BME280;74978;37.772;-122.432;2024-03-02T01:14:01;100427.97;;;5.32;78.15
84752;BME280;74978;37.772;-122.432;2024-03-02T01:16:26;100429.23;;;5.68;77.62
84752;BME280;74978;37.772;-122.432;2024-03-02T01:18:51;100443.02;;;5.83;78.04
84752;BME280;74978;37.772;-122.432;2024-03-02T01:21:17;100440.69;;;5.97;78.61
84752;BME280;74978;37.772;-122.432;2024-03-02T01:23:42;100437.20;;;6.00;78.45
84752;BME280;74978;37.772;-122.432;2024-03-02T01:26:17;100457.42;;;5.04;80.40
84752;BME280;74978;37.772;-122.432;2024-03-02T01:28:34;100478.37;;;5.42;77.76
84752;BME280;74978;37.772;-122.432;2024-03-02T01:31:16;100464.17;;;7.00;68.45
84752;BME280;74978;37.772;-122.432;2024-03-02T01:33:25;100462.52;;;4.84;76.62
84752;BME280;74978;37.772;-122.432;2024-03-02T01:35:51;100448.54;;;5.33;75.80
84752;BME280;74978;37.772;-122.432;2024-03-02T01:38:21;100437.05;;;4.71;77.58
84752;BME280;74978;37.772;-122.432;2024-03-02T01:40:42;100405.06;;;5.34;77.85
84752;BME280;74978;37.772;-122.432;2024-03-02T01:43:07;100410.89;;;4.69;76.20
84752;BME280;74978;37.772;-122.432;2024-03-02T01:45:33;100405.30;;;5.91;75.84
84752;BME280;74978;37.772;-122.432;2024-03-02T01:47:58;100397.09;;;6.07;76.40
84752;BME280;74978;37.772;-122.432;2024-03-02T01:50:28;100407.70;;;6.41;75.96
84752;BME280;74978;37.772;-122.432;2024-03-02T01:52:49;100401.08;;;6.36;76.37
84752;BME280;74978;37.772;-122.432;2024-03-02T01:55:14;100391.28;;;6.20;74.62
84752;BME280;74978;37.772;-122.432;2024-03-02T01:57:40;100400.29;;;6.34;75.74
84752;BME280;74978;37.772;-122.432;2024-03-02T02:00:07;100412.77;;;5.50;74.90
84752;BME280;74978;37.772;-122.432;2024-03-02T02:02:31;100398.49;;;6.47;75.89
84752;BME280;74978;37.772;-122.432;2024-03-02T02:04:57;100389.67;;;6.50;76.03
84752;BME280;74978;37.772;-122.432;2024-03-02T02:07:22;100387.43;;;6.27;76.80
84752;BME280;74978;37.772;-122.432;2024-03-02T02:09:48;100376.10;;;6.51;76.03
84752;BME280;74978;37.772;-122.432;2024-03-02T02:12:15;100374.41;;;6.39;76.39
84752;BME280;74978;37.772;-122.432;2024-03-02T02:14:39;100383.65;;;6.25;76.87
84752;BME280;74978;37.772;-122.432;2024-03-02T02:17:04;100380.56;;;5.91;76.29
84752;BME280;74978;37.772;-122.432;2024-03-02T02:19:30;100361.08;;;6.37;75.06
84752;BME280;74978;37.772;-122.432;2024-03-02T02:21:55;100371.42;;;6.82;75.24
84752;BME280;74978;37.772;-122.432;2024-03-02T02:24:22;100350.15;;;6.42;75.53
84752;BME280;74978;37.772;-122.432;2024-03-02T02:26:47;100359.21;;;6.77;75.63
84752;BME280;74978;37.772;-122.432;2024-03-02T02:29:12;100362.74;;;6.61;74.69
84752;BME280;74978;37.772;-122.432;2024-03-02T02:31:38;100361.97;;;6.49;74.71
84752;BME280;74978;37.772;-122.432;2024-03-02T02:34:03;100352.80;;;5.70;74.37
84752;BME280;74978;37.772;-122.432;2024-03-02T02:36:30;100361.66;;;6.33;74.76
84752;BME280;74978;37.772;-122.432;2024-03-02T02:38:54;100359.51;;;6.66;75.06
84752;BME280;74978;37.772;-122.432;2024-03-02T02:41:20;100367.96;;;6.15;76.53
84752;BME280;74978;37.772;-122.432;2024-03-02T02:43:45;100380.61;;;6.40;76.37
84752;BME280;74978;37.772;-122.432;2024-03-02T02:46:11;100363.94;;;5.70;76.03
84752;BME280;74978;37.772;-122.432;2024-03-02T02:48:37;100366.86;;;6.31;76.04
84752;BME280;74978;37.772;-122.432;2024-03-02T02:51:02;100382.30;;;5.96;74.39
84752;BME280;74978;37.772;-122.432;2024-03-02T02:53:27;100382.62;;;6.35;72.20
84752;BME280;74978;37.772;-122.432;2024-03-02T02:55:52;100385.98;;;6.39;71.81
84752;BME280;74978;37.772;-122.432;2024-03-02T02:58:18;100377.00;;;6.10;72.30
84752;BME280;74978;37.772;-122.432;2024-03-02T03:00:44;100374.84;;;6.45;72.34
84752;BME280;74978;37.772;-122.432;2024-03-02T03:03:09;100384.91;;;5.48;73.33
84752;BME280;74978;37.772;-122.432;2024-03-02T03:05:35;100382.26;;;6.46;73.90
84752;BME280;74978;37.772;-122.432;2024-03-02T03:08:00;100360.21;;;6.54;74.68
84752;BME280;74978;37.772;-122.432;2024-03-02T03:10:26;100371.80;;;6.27;75.49
84752;BME280;74978;37.772;-122.432;2024-03-02T03:12:52;100373.85;;;6.68;75.28
84752;BME280;74978;37.772;-122.432;2024-03-02T03:15:17;100372.29;;;6.40;74.12
84752;BME280;74978;37.772;-122.432;2024-03-02T03:17:43;100369.83;;;6.86;73.26
84752;BME280;74978;37.772;-122.432;2024-03-02T03:20:08;100386.72;;;6.52;72.88
84752;BME280;74978;37.772;-122.432;2024-03-02T03:22:33;100382.01;;;6.61;72.20
84752;BME280;74978;37.772;-122.432;2024-03-02T03:24:59;100375.20;;;6.73;72.04
84752;BME280;74978;37.772;-122.432;2024-03-02T03:27:24;100369.59;;;6.48;72.10
84752;BME280;74978;37.772;-122.432;2024-03-02T03:29:49;100378.96;;;6.68;71.25
84752;BME280;74978;37.772;-122.432;2024-03-02T03:32:15;100360.20;;;6.33;71.19
84752;BME280;74978;37.772;-122.432;2024-03-02T03:34:40;100351.91;;;6.81;71.44
84752;BME280;74978;37.772;-122.432;2024-03-02T03:37:05;100349.94;;;5.75;71.28
84752;BME280;74978;37.772;-122.432;2024-03-02T03:39:31;100344.93;;;6.72;71.82
84752;BME280;74978;37.772;-122.432;2024-03-02T03:41:56;100344.74;;;6.83;71.84
84752;BME280;74978;37.772;-122.432;2024-03-02T03:44:22;100340.84;;;6.65;72.90
84752;BME280;74978;37.772;-122.432;2024-03-02T03:46:47;100353.44;;;6.86;72.95
84752;BME280;74978;37.772;-122.432;2024-03-02T03:49:14;100331.70;;;6.42;72.60
84752;BME280;74978;37.772;-122.432;2024-03-02T03:51:39;100335.78;;;6.76;72.81
84752;BME280;74978;37.772;-122.432;2024-03-02T03:54:04;100330.77;;;5.64;72.25
84752;BME280;74978;37.772;-122.432;2024-03-02T03:56:29;100305.07;;;6.93;72.92
84752;BME280;74978;37.772;-122.432;2024-03-02T03:58:54;100307.68;;;7.02;73.62
84752;BME280;74978;37.772;-122.432;2024-03-02T04:01:21;100320.03;;;6.24;76.11
84752;BME280;74978;37.772;-122.432;2024-03-02T04:03:45;100355.20;;;6.23;78.47
84752;BME280;74978;37.772;-122.432;2024-03-02T04:06:10;100384.43;;;5.32;79.11
84752;BME280;74978;37.772;-122.432;2024-03-02T04:08:36;100374.96;;;5.26;78.93
84752;BME280;74978;37.772;-122.432;2024-03-02T04:11:01;100363.12;;;5.27;79.54
84752;BME280;74978;37.772;-122.432;2024-03-02T04:13:27;100367.20;;;5.66;78.52
84752;BME280;74978;37.772;-122.432;2024-03-02T04:15:52;100384.30;;;5.42;77.27
84752;BME280;74978;37.772;-122.432;2024-03-02T04:18:18;100366.02;;;5.13;77.33
84752;BME280;74978;37.772;-122.432;2024-03-02T04:20:43;100366.70;;;5.43;76.67
84752;BME280;74978;37.772;-122.432;2024-03-02T04:23:08;100376.81;;;4.34;75.89
84752;BME280;74978;37.772;-122.432;2024-03-02T04:25:34;100383.75;;;5.32;76.06
84752;BME280;74978;37.772;-122.432;2024-03-02T04:27:59;100372.08;;;5.50;75.73
84752;BME280;74978;37.772;-122.432;2024-03-02T04:30:24;100376.03;;;4.97;76.82
84752;BME280;74978;37.772;-122.432;2024-03-02T04:32:49;100387.49;;;5.06;77.55
84752;BME280;74978;37.772;-122.432;2024-03-02T04:35:15;100372.15;;;4.91;77.38
84752;BME280;74978;37.772;-122.432;2024-03-02T04:37:41;100373.67;;;5.30;77.85
84752;BME280;74978;37.772;-122.432;2024-03-02T04:40:06;100358.07;;;4.26;78.47
84752;BME280;74978;37.772;-122.432;2024-03-02T04:42:31;100362.58;;;5.15;78.58
84752;BME280;74978;37.772;-122.432;2024-03-02T04:44:57;100357.27;;;5.23;78.84
84752;BME280;74978;37.772;-122.432;2024-03-02T04:47:22;100351.44;;;5.09;78.00
84752;BME280;74978;37.772;-122.432;2024-03-02T04:49:52;100362.06;;;5.25;79.08
84752;BME280;74978;37.772;-122.432;2024-03-02T04:52:12;100351.23;;;4.87;79.06
84752;BME280;74978;37.772;-122.432;2024-03-02T04:54:38;100345.95;;;5.37;77.39
84752;BME280;74978;37.772;-122.432;2024-03-02T04:57:04;100347.32;;;4.44;75.77
84752;BME280;74978;37.772;-122.432;2024-03-02T04:59:28;100348.29;;;5.19;75.84
84752;BME280;74978;37.772;-122.432;2024-03-02T05:01:55;100349.60;;;5.31;73.76
84752;BME280;74978;37.772;-122.432;2024-03-02T05:04:19;100352.85;;;5.46;72.86
84752;BME280;74978;37.772;-122.432;2024-03-02T05:06:44;100350.11;;;5.42;73.54
84752;BME280;74978;37.772;-122.432;2024-03-02T05:09:10;100373.02;;;4.92;73.79
84752;BME280;74978;37.772;-122.432;2024-03-02T05:11:36;100375.13;;;6.05;73.90
84752;BME280;74978;37.772;-122.432;2024-03-02T05:14:02;100436.69;;;5.30;75.09
84752;BME280;74978;37.772;-122.432;2024-03-02T05:16:26;100422.94;;;3.82;77.88
84752;BME280;74978;37.772;-122.432;2024-03-02T05:18:51;100436.46;;;4.03;78.39
84752;BME280;74978;37.772;-122.432;2024-03-02T05:21:17;100408.66;;;4.11;79.09
84752;BME280;74978;37.772;-122.432;2024-03-02T05:23:42;100400.60;;;3.98;79.31
84752;BME280;74978;37.772;-122.432;2024-03-02T05:26:08;100397.71;;;2.83;80.37
84752;BME280;74978;37.772;-122.432;2024-03-02T05:28:38;100397.05;;;3.69;79.81
84752;BME280;74978;37.772;-122.432;2024-03-02T05:30:58;100389.48;;;3.66;79.78
84752;BME280;74978;37.772;-122.432;2024-03-02T05:33:23;100396.31;;;3.61;79.47
84752;BME280;74978;37.772;-122.432;2024-03-02T05:35:49;100389.24;;;4.23;79.55
84752;BME280;74978;37.772;-122.432;2024-03-02T05:38:14;100391.41;;;3.74;79.15
84752;BME280;74978;37.772;-122.432;2024-03-02T05:40:40;100386.42;;;4.15;79.48
84752;BME280;74978;37.772;-122.432;2024-03-02T05:43:05;100385.53;;;3.34;78.79
84752;BME280;74978;37.772;-122.432;2024-03-02T05:45:31;100378.09;;;4.45;77.66
84752;BME280;74978;37.772;-122.432;2024-03-02T05:47:56;100379.74;;;4.81;78.13
84752;BME280;74978;37.772;-122.432;2024-03-02T05:50:22;100378.23;;;4.69;77.74
84752;BME280;74978;37.772;-122.432;2024-03-02T05:52:47;100379.47;;;4.83;76.77
84752;BME280;74978;37.772;-122.432;2024-03-02T05:55:13;100374.82;;;4.26;76.76
84752;BME280;74978;37.772;-122.432;2024-03-02T05:57:38;100374.95;;;4.75;77.22
84752;BME280;74978;37.772;-122.432;2024-03-02T06:00:04;100367.54;;;4.60;76.61
84752;BME280;74978;37.772;-122.432;2024-03-02T06:02:29;100370.90;;;5.00;77.37
84752;BME280;74978;37.772;-122.432;2024-03-02T06:04:56;100357.70;;;5.11;78.17
84752;BME280;74978;37.772;-122.432;2024-03-02T06:07:20;100361.05;;;4.73;77.84
84752;BME280;74978;37.772;-122.432;2024-03-02T06:09:45;100357.72;;;5.13;77.43
84752;BME280;74978;37.772;-122.432;2024-03-02T06:12:10;100362.20;;;3.86;78.00
84752;BME280;74978;37.772;-122.432;2024-03-02T06:14:35;100361.39;;;5.30;77.10
84752;BME280;74978;37.772;-122.432;2024-03-02T06:17:01;100381.54;;;5.20;78.70
84752;BME280;74978;37.772;-122.432;2024-03-02T06:19:27;100374.29;;;4.70;76.73
84752;BME280;74978;37.772;-122.432;2024-03-02T06:21:52;100373.45;;;5.03;76.86
84752;BME280;74978;37.772;-122.432;2024-03-02T06:24:18;100381.86;;;4.36;74.56
84752;BME280;74978;37.772;-122.432;2024-03-02T06:26:44;100386.71;;;4.66;73.57
84752;BME280;74978;37.772;-122.432;2024-03-02T06:29:08;100379.49;;;3.88;75.09
84752;BME280;74978;37.772;-122.432;2024-03-02T06:31:34;100385.54;;;4.36;75.90
84752;BME280;74978;37.772;-122.432;2024-03-02T06:33:59;100380.74;;;4.48;74.49
84752;BME280;74978;37.772;-122.432;2024-03-02T06:36:24;100384.18;;;4.26;76.47
84752;BME280;74978;37.772;-122.432;2024-03-02T06:38:50;100389.72;;;4.45;76.72
84752;BME280;74978;37.772;-122.432;2024-03-02T06:41:15;100384.03;;;4.40;76.25
84752;BME280;74978;37.772;-122.432;2024-03-02T06:43:40;100379.97;;;4.39;76.27
84752;BME280;74978;37.772;-122.432;2024-03-02T06:46:06;100383.22;;;3.92;75.26
84752;BME280;74978;37.772;-122.432;2024-03-02T06:48:32;100383.66;;;4.72;75.09
84752;BME280;74978;37.772;-122.432;2024-03-02T06:50:57;100387.33;;;5.06;75.29
84752;BME280;74978;37.772;-122.432;2024-03-02T06:53:22;100391.82;;;4.46;75.96
84752;BME280;74978;37.772;-122.432;2024-03-02T06:55:48;100400.29;;;4.60;75.50
84752;BME280;74978;37.772;-122.432;2024-03-02T06:58:13;100397.02;;;3.87;74.58
84752;BME280;74978;37.772;-122.432;2024-03-02T07:00:39;100398.27;;;4.55;75.37
84752;BME280;74978;37.772;-122.432;2024-03-02T07:03:05;100401.38;;;4.03;74.27
84752;BME280;74978;37.772;-122.432;2024-03-02T07:05:29;100402.27;;;4.71;73.17
84752;BME280;74978;37.772;-122.432;2024-03-02T07:07:55;100406.50;;;4.66;73.01
84752;BME280;74978;37.772;-122.432;2024-03-02T07:10:21;100393.47;;;4.51;71.08
84752;BME280;74978;37.772;-122.432;2024-03-02T07:12:46;100397.93;;;5.06;71.33
84752;BME280;74978;37.772;-122.432;2024-03-02T07:15:12;100386.30;;;3.45;70.43
84752;BME280;74978;37.772;-122.432;2024-03-02T07:17:37;100383.93;;;4.87;69.42
84752;BME280;74978;37.772;-122.432;2024-03-02T07:20:02;100376.39;;;4.39;69.87
84752;BME280;74978;37.772;-122.432;2024-03-02T07:22:28;100381.02;;;4.73;69.86
84752;BME280;74978;37.772;-122.432;2024-03-02T07:24:53;100383.50;;;4.84;69.87
84752;BME280;74978;37.772;-122.432;2024-03-02T07:27:20;100377.66;;;4.88;68.74
84752;BME280;74978;37.772;-122.432;2024-03-02T07:29:44;100373.86;;;5.39;67.99
84752;BME280;74978;37.772;-122.432;2024-03-02T07:32:10;100383.46;;;4.30;67.62
84752;BME280;74978;37.772;-122.432;2024-03-02T07:34:36;100382.25;;;4.83;68.47
84752;BME280;74978;37.772;-122.432;2024-03-02T07:37:01;100379.79;;;4.87;67.01
84752;BME280;74978;37.772;-122.432;2024-03-02T07:39:27;100381.51;;;5.05;68.12
84752;BME280;74978;37.772;-122.432;2024-03-02T07:41:52;100381.64;;;4.92;68.68
84752;BME280;74978;37.772;-122.432;2024-03-02T07:44:18;100381.88;;;4.83;68.38
84752;BME280;74978;37.772;-122.432;2024-03-02T07:46:44;100395.53;;;4.82;68.40
84752;BME280;74978;37.772;-122.432;2024-03-02T07:49:09;100412.52;;;2.78;74.31
84752;BME280;74978;37.772;-122.432;2024-03-02T07:51:34;100413.05;;;3.05;77.38
84752;BME280;74978;37.772;-122.432;2024-03-02T07:54:00;100414.55;;;3.06;78.44
84752;BME280;74978;37.772;-122.432;2024-03-02T07:56:25;100397.06;;;2.95;79.35
84752;BME280;74978;37.772;-122.432;2024-03-02T07:58:51;100407.25;;;3.28;78.53
84752;BME280;74978;37.772;-122.432;2024-03-02T08:01:18;100396.54;;;3.05;77.47
84752;BME280;74978;37.772;-122.432;2024-03-02T08:03:42;100395.17;;;3.71;76.68
84752;BME280;74978;37.772;-122.432;2024-03-02T08:06:07;100410.74;;;2.96;75.41
84752;BME280;74978;37.772;-122.432;2024-03-02T08:08:32;100405.70;;;3.89;74.49
84752;BME280;74978;37.772;-122.432;2024-03-02T08:10:58;100402.60;;;4.09;73.54
84752;BME280;74978;37.772;-122.432;2024-03-02T08:13:24;100410.82;;;3.68;72.50
84752;BME280;74978;37.772;-122.432;2024-03-02T08:15:49;100401.95;;;3.98;71.22
84752;BME280;74978;37.772;-122.432;2024-03-02T08:18:15;100406.32;;;3.54;71.38
84752;BME280;74978;37.772;-122.432;2024-03-02T08:20:41;100412.59;;;4.39;71.06
84752;BME280;74978;37.772;-122.432;2024-03-02T08:23:05;100400.75;;;3.04;71.58
84752;BME280;74978;37.772;-122.432;2024-03-02T08:25:31;100395.65;;;4.07;69.70
84752;BME280;74978;37.772;-122.432;2024-03-02T08:27:56;100400.93;;;4.17;69.82
84752;BME280;74978;37.772;-122.432;2024-03-02T08:30:22;100395.53;;;4.14;69.20
84752;BME280;74978;37.772;-122.432;2024-03-02T08:32:47;100393.96;;;4.46;68.64
84752;BME280;74978;37.772;-122.432;2024-03-02T08:35:13;100390.22;;;3.85;68.70
84752;BME280;74978;37.772;-122.432;2024-03-02T08:37:40;100388.81;;;4.89;66.87
84752;BME280;74978;37.772;-122.432;2024-03-02T08:40:03;100387.12;;;4.15;66.91
84752;BME280;74978;37.772;-122.432;2024-03-02T08:42:29;100386.26;;;4.96;68.03
84752;BME280;74978;37.772;-122.432;2024-03-02T08:44:54;100389.25;;;4.33;68.34
84752;BME280;74978;37.772;-122.432;2024-03-02T08:47:20;100405.09;;;3.80;68.10
84752;BME280;74978;37.772;-122.432;2024-03-02T08:49:45;100395.34;;;3.90;68.73
84752;BME280;74978;37.772;-122.432;2024-03-02T08:52:10;100392.42;;;3.00;68.74
84752;BME280;74978;37.772;-122.432;2024-03-02T08:54:36;100388.81;;;3.81;69.10
84752;BME280;74978;37.772;-122.432;2024-03-02T08:57:02;100388.06;;;3.60;69.70
84752;BME280;74978;37.772;-122.432;2024-03-02T08:59:27;100383.49;;;4.17;68.98
84752;BME280;74978;37.772;-122.432;2024-03-02T09:01:53;100377.42;;;4.61;68.67
84752;BME280;74978;37.772;-122.432;2024-03-02T09:04:18;100394.69;;;4.05;68.91
84752;BME280;74978;37.772;-122.432;2024-03-02T09:06:44;100389.91;;;4.24;70.22
84752;BME280;74978;37.772;-122.432;2024-03-02T09:09:09;100405.19;;;3.37;67.86
84752;BME280;74978;37.772;-122.432;2024-03-02T09:11:35;100406.25;;;4.21;67.95
84752;BME280;74978;37.772;-122.432;2024-03-02T09:14:01;100406.41;;;4.31;68.01
84752;BME280;74978;37.772;-122.432;2024-03-02T09:16:26;100421.70;;;4.07;66.91
84752;BME280;74978;37.772;-122.432;2024-03-02T09:18:52;100405.00;;;4.34;66.09
84752;BME280;74978;37.772;-122.432;2024-03-02T09:21:17;100458.81;;;4.17;68.46
84752;BME280;74978;37.772;-122.432;2024-03-02T09:23:42;100461.28;;;3.44;71.91
84752;BME280;74978;37.772;-122.432;2024-03-02T09:26:08;100456.14;;;2.01;73.78
84752;BME280;74978;37.772;-122.432;2024-03-02T09:28:33;100446.45;;;2.10;76.11
84752;BME280;74978;37.772;-122.432;2024-03-02T09:31:01;100467.21;;;2.09;77.47
84752;BME280;74978;37.772;-122.432;2024-03-02T09:33:24;100460.55;;;1.97;78.42
84752;BME280;74978;37.772;-122.432;2024-03-02T09:35:50;100451.04;;;2.29;78.30
84752;BME280;74978;37.772;-122.432;2024-03-02T09:38:16;100462.35;;;1.69;76.69
84752;BME280;74978;37.772;-122.432;2024-03-02T09:40:42;100464.70;;;2.11;75.35
84752;BME280;74978;37.772;-122.432;2024-03-02T09:43:06;100464.03;;;1.31;76.13
84752;BME280;74978;37.772;-122.432;2024-03-02T09:45:31;100475.42;;;2.21;76.57
84752;BME280;74978;37.772;-122.432;2024-03-02T09:47:57;100479.27;;;2.94;75.12
84752;BME280;74978;37.772;-122.432;2024-03-02T09:50:22;100472.74;;;2.29;76.30
84752;BME280;74978;37.772;-122.432;2024-03-02T09:52:49;100457.86;;;2.19;75.21
84752;BME280;74978;37.772;-122.432;2024-03-02T09:55:14;100455.18;;;2.81;73.64
84752;BME280;74978;37.772;-122.432;2024-03-02T09:57:39;100453.09;;;2.46;74.11
84752;BME280;74978;37.772;-122.432;2024-03-02T10:00:06;100452.37;;;2.41;73.08
84752;BME280;74978;37.772;-122.432;2024-03-02T10:02:30;100444.40;;;2.51;73.25
84752;BME280;74978;37.772;-122.432;2024-03-02T10:04:55;100444.91;;;3.09;71.39
84752;BME280;74978;37.772;-122.432;2024-03-02T10:07:21;100447.41;;;2.67;72.44
84752;BME280;74978;37.772;-122.432;2024-03-02T10:09:48;100447.05;;;2.75;72.84
84752;BME280;74978;37.772;-122.432;2024-03-02T10:12:13;100446.34;;;2.61;71.43
84752;BME280;74978;37.772;-122.432;2024-03-02T10:14:40;100446.59;;;2.92;69.88
84752;BME280;74978;37.772;-122.432;2024-03-02T10:17:05;100441.25;;;2.40;71.04
84752;BME280;74978;37.772;-122.432;2024-03-02T10:19:29;100441.62;;;3.16;70.96
84752;BME280;74978;37.772;-122.432;2024-03-02T10:21:55;100442.55;;;3.25;70.25
84752;BME280;74978;37.772;-122.432;2024-03-02T10:24:21;100442.55;;;3.94;67.53
84752;BME280;74978;37.772;-122.432;2024-03-02T10:26:46;100441.57;;;3.59;66.82
84752;BME280;74978;37.772;-122.432;2024-03-02T10:29:11;100444.06;;;2.42;66.90
84752;BME280;74978;37.772;-122.432;2024-03-02T10:31:37;100452.79;;;3.35;66.35
84752;BME280;74978;37.772;-122.432;2024-03-02T10:34:02;100445.43;;;3.26;63.78
84752;BME280;74978;37.772;-122.432;2024-03-02T10:36:28;100438.69;;;3.11;62.66
84752;BME280;74978;37.772;-122.432;2024-03-02T10:38:53;100434.33;;;3.58;61.93
84752;BME280;74978;37.772;-122.432;2024-03-02T10:41:19;100440.98;;;3.06;61.97
84752;BME280;74978;37.772;-122.432;2024-03-02T10:43:45;100431.55;;;3.66;60.80
84752;BME280;74978;37.772;-122.432;2024-03-02T10:46:11;100439.82;;;2.82;61.02
84752;BME280;74978;37.772;-122.432;2024-03-02T10:48:36;100432.40;;;3.80;60.45
84752;BME280;74978;37.772;-122.432;2024-03-02T10:51:01;100426.02;;;3.85;60.23
84752;BME280;74978;37.772;-122.432;2024-03-02T10:53:26;100412.83;;;3.52;60.31
84752;BME280;74978;37.772;-122.432;2024-03-02T10:55:57;100406.53;;;4.19;60.26
84752;BME280;74978;37.772;-122.432;2024-03-02T10:58:18;100409.79;;;4.50;58.96
84752;BME280;74978;37.772;-122.432;2024-03-02T11:00:44;100440.27;;;4.80;59.17
84752;BME280;74978;37.772;-122.432;2024-03-02T11:03:15;100476.33;;;1.59;66.11
84752;BME280;74978;37.772;-122.432;2024-03-02T11:05:39;100477.37;;;1.36;72.21
84752;BME280;74978;37.772;-122.432;2024-03-02T11:08:04;100456.36;;;1.59;72.52
84752;BME280;74978;37.772;-122.432;2024-03-02T11:10:27;100454.98;;;1.26;72.22
84752;BME280;74978;37.772;-122.432;2024-03-02T11:12:57;100444.10;;;2.17;73.00
84752;BME280;74978;37.772;-122.432;2024-03-02T11:15:19;100446.88;;;1.86;73.98
84752;BME280;74978;37.772;-122.432;2024-03-02T11:17:42;100443.09;;;2.29;72.83
84752;BME280;74978;37.772;-122.432;2024-03-02T11:20:09;100443.43;;;1.58;73.23
84752;BME280;74978;37.772;-122.432;2024-03-02T11:22:34;100439.89;;;2.62;70.61
84752;BME280;74978;37.772;-122.432;2024-03-02T11:24:59;100438.65;;;3.02;70.18
84752;BME280;74978;37.772;-122.432;2024-03-02T11:29:50;100439.30;;;3.18;68.17
84752;BME280;74978;37.772;-122.432;2024-03-02T11:32:18;100437.90;;;2.84;67.13
84752;BME280;74978;37.772;-122.432;2024-03-02T11:34:43;100433.99;;;3.06;67.28
84752;BME280;74978;37.772;-122.432;2024-03-02T11:37:09;100425.05;;;3.17;66.73
84752;BME280;74978;37.772;-122.432;2024-03-02T11:39:35;100409.59;;;2.37;69.41
84752;BME280;74978;37.772;-122.432;2024-03-02T11:41:59;100407.02;;;2.65;71.29
84752;BME280;74978;37.772;-122.432;2024-03-02T11:44:25;100414.86;;;2.90;70.85
84752;BME280;74978;37.772;-122.432;2024-03-02T11:46:53;100441.23;;;3.23;71.04
84752;BME280;74978;37.772;-122.432;2024-03-02T11:49:15;100415.31;;;1.86;71.66
84752;BME280;74978;37.772;-122.432;2024-03-02T11:51:50;100432.76;;;2.61;72.50
84752;BME280;74978;37.772;-122.432;2024-03-02T11:54:06;100447.50;;;2.31;72.45
84752;BME280;74978;37.772;-122.432;2024-03-02T11:56:32;100452.45;;;2.47;71.32
84752;BME280;74978;37.772;-122.432;2024-03-02T11:58:57;100479.61;;;1.80;72.48
84752;BME280;74978;37.772;-122.432;2024-03-02T12:01:23;100486.99;;;1.88;71.31
84752;BME280;74978;37.772;-122.432;2024-03-02T12:03:51;100483.59;;;1.85;71.35
84752;BME280;74978;37.772;-122.432;2024-03-02T12:06:15;100491.36;;;1.30;71.75
84752;BME280;74978;37.772;-122.432;2024-03-02T12:08:41;100486.62;;;1.72;71.20
84752;BME280;74978;37.772;-122.432;2024-03-02T12:11:06;100491.21;;;0.87;71.77
84752;BME280;74978;37.772;-122.432;2024-03-02T12:13:32;100504.71;;;1.60;71.31
84752;BME280;74978;37.772;-122.432;2024-03-02T12:15:57;100506.32;;;1.84;71.66
84752;BME280;74978;37.772;-122.432;2024-03-02T12:18:23;100494.69;;;1.79;72.52
84752;BME280;74978;37.772;-122.432;2024-03-02T12:20:50;100529.44;;;1.70;73.01
84752;BME280;74978;37.772;-122.432;2024-03-02T12:23:14;100539.20;;;1.28;73.33
84752;BME280;74978;37.772;-122.432;2024-03-02T12:25:40;100530.97;;;1.07;73.10